sensor_id;sensor_type;location;lat;lon;timestamp;temperature;humidity
5286;DHT22;2665;53.112;7.358;2023-03-08T10:22:27;3.90;99.90
5286;DHT22;2665;53.112;7.358;2023-03-08T10:25:00;4.00;99.90
5286;DHT22;2665;53.112;7.358;2023-03-08T10:27:30;4.00;1.00
5286;DHT22;2665;53.112;7.358;2023-03-08T10:29:58;4.10;1.00
5286;DHT22;2665;53.112;7.358;2023-03-08T10:32:25;4.30;1.00
5286;DHT22;2665;53.112;7.358;2023-03-08T10:34:52;4.40;99.90
5286;DHT22;2665;53.112;7.358;2023-03-08T10:37:20;4.50;99.90
5286;DHT22;2665;53.112;7.358;2023-03-08T10:39:51;4.50;99.90
5286;DHT22;2665;53.112;7.358;2023-03-08T10:42:22;4.60;99.90
5286;DHT22;2665;53.112;7.358;2023-03-08T10:47:28;4.70;1.00
5286;DHT22;2665;53.112;7.358;2023-03-08T10:52:38;4.90;1.50
5286;DHT22;2665;53.112;7.358;2023-03-08T10:55:24;5.20;99.90
5286;DHT22;2665;53.112;7.358;2023-03-08T10:58:00;5.40;99.90
5286;DHT22;2665;53.112;7.358;2023-03-08T11:05:34;5.90;1.00
5286;DHT22;2665;53.112;7.358;2023-03-08T11:08:00;6.10;1.00
5286;DHT22;2665;53.112;7.358;2023-03-08T11:10:28;6.30;1.00
5286;DHT22;2665;53.112;7.358;2023-03-08T11:15:28;6.60;99.90
5286;DHT22;2665;53.112;7.358;2023-03-08T11:20:59;6.40;1.00
5286;DHT22;2665;53.112;7.358;2023-03-08T11:26:26;6.40;1.00
5286;DHT22;2665;53.112;7.358;2023-03-08T11:29:07;6.40;1.00
5286;DHT22;2665;53.112;7.358;2023-03-08T11:34:37;6.60;1.00
5286;DHT22;2665;53.112;7.358;2023-03-08T11:45:29;6.90;1.00
5286;DHT22;2665;53.112;7.358;2023-03-08T11:51:09;6.90;1.00
5286;DHT22;2665;53.112;7.358;2023-03-08T11:59:28;7.40;99.90
5286;DHT22;2665;53.112;7.358;2023-03-08T12:01:58;7.60;99.90
5286;DHT22;2665;53.112;7.358;2023-03-08T12:04:57;7.70;99.90
5286;DHT22;2665;53.112;7.358;2023-03-08T12:07:45;7.70;99.90
5286;DHT22;2665;53.112;7.358;2023-03-08T12:10:24;7.50;99.90
5286;DHT22;2665;53.112;7.358;2023-03-08T12:15:56;7.60;99.90
5286;DHT22;2665;53.112;7.358;2023-03-08T12:19:04;7.60;99.90
5286;DHT22;2665;53.112;7.358;2023-03-08T12:27:26;7.40;99.90
5286;DHT22;2665;53.112;7.358;2023-03-08T12:32:40;7.40;99.90
5286;DHT22;2665;53.112;7.358;2023-03-08T12:35:23;7.40;99.90
5286;DHT22;2665;53.112;7.358;2023-03-08T12:40:44;7.60;99.90
5286;DHT22;2665;53.112;7.358;2023-03-08T12:45:37;7.60;99.90
5286;DHT22;2665;53.112;7.358;2023-03-08T12:50:30;7.70;99.90
5286;DHT22;2665;53.112;7.358;2023-03-08T12:52:56;7.60;99.90
5286;DHT22;2665;53.112;7.358;2023-03-08T12:55:27;7.70;99.90
5286;DHT22;2665;53.112;7.358;2023-03-08T12:57:59;7.70;99.90
5286;DHT22;2665;53.112;7.358;2023-03-08T13:03:22;7.60;53.60
5286;DHT22;2665;53.112;7.358;2023-03-08T13:05:49;7.50;63.50
5286;DHT22;2665;53.112;7.358;2023-03-08T13:11:04;7.80;36.70
5286;DHT22;2665;53.112;7.358;2023-03-08T13:13:56;8.00;31.70
5286;DHT22;2665;53.112;7.358;2023-03-08T13:16:38;8.00;26.60
5286;DHT22;2665;53.112;7.358;2023-03-08T13:21:46;8.20;22.10
5286;DHT22;2665;53.112;7.358;2023-03-08T13:24:42;8.20;20.30
5286;DHT22;2665;53.112;7.358;2023-03-08T13:27:23;8.20;21.10
5286;DHT22;2665;53.112;7.358;2023-03-08T13:29:52;8.30;22.20
5286;DHT22;2665;53.112;7.358;2023-03-08T13:32:20;8.40;21.10
5286;DHT22;2665;53.112;7.358;2023-03-08T13:34:59;8.30;20.20
5286;DHT22;2665;53.112;7.358;2023-03-08T13:37:27;8.50;21.90
5286;DHT22;2665;53.112;7.358;2023-03-08T13:39:56;8.60;20.70
5286;DHT22;2665;53.112;7.358;2023-03-08T13:42:22;8.40;17.60
5286;DHT22;2665;53.112;7.358;2023-03-08T13:44:52;8.20;18.10
5286;DHT22;2665;53.112;7.358;2023-03-08T13:47:22;8.00;17.30
5286;DHT22;2665;53.112;7.358;2023-03-08T13:49:49;7.90;17.60
5286;DHT22;2665;53.112;7.358;2023-03-08T13:52:19;7.80;17.60
5286;DHT22;2665;53.112;7.358;2023-03-08T13:54:48;7.70;17.30
5286;DHT22;2665;53.112;7.358;2023-03-08T13:57:35;7.50;17.00
5286;DHT22;2665;53.112;7.358;2023-03-08T14:00:27;7.20;15.10
5286;DHT22;2665;53.112;7.358;2023-03-08T14:02:53;7.00;15.20
5286;DHT22;2665;53.112;7.358;2023-03-08T14:05:21;6.90;15.00
5286;DHT22;2665;53.112;7.358;2023-03-08T14:08:00;6.80;15.80
5286;DHT22;2665;53.112;7.358;2023-03-08T14:10:44;6.70;15.70
5286;DHT22;2665;53.112;7.358;2023-03-08T14:13:46;6.50;13.60
5286;DHT22;2665;53.112;7.358;2023-03-08T14:16:27;6.30;13.70
5286;DHT22;2665;53.112;7.358;2023-03-08T14:18:54;6.10;13.80
5286;DHT22;2665;53.112;7.358;2023-03-08T14:21:28;6.00;13.00
5286;DHT22;2665;53.112;7.358;2023-03-08T14:23:59;5.90;12.90
5286;DHT22;2665;53.112;7.358;2023-03-08T14:26:40;5.80;13.80
5286;DHT22;2665;53.112;7.358;2023-03-08T14:29:20;5.80;13.70
5286;DHT22;2665;53.112;7.358;2023-03-08T14:34:48;6.00;15.40
5286;DHT22;2665;53.112;7.358;2023-03-08T14:37:25;6.10;16.90
5286;DHT22;2665;53.112;7.358;2023-03-08T14:40:13;6.00;16.60
5286;DHT22;2665;53.112;7.358;2023-03-08T14:42:44;6.00;17.70
5286;DHT22;2665;53.112;7.358;2023-03-08T14:48:23;5.90;17.90
5286;DHT22;2665;53.112;7.358;2023-03-08T14:53:40;5.70;18.50
5286;DHT22;2665;53.112;7.358;2023-03-08T14:58:39;5.60;19.90
5286;DHT22;2665;53.112;7.358;2023-03-08T15:01:05;5.60;20.60
5286;DHT22;2665;53.112;7.358;2023-03-08T15:03:31;5.50;20.40
5286;DHT22;2665;53.112;7.358;2023-03-08T15:05:59;5.50;20.90
5286;DHT22;2665;53.112;7.358;2023-03-08T15:08:26;5.40;21.70
5286;DHT22;2665;53.112;7.358;2023-03-08T15:10:52;5.40;21.90
5286;DHT22;2665;53.112;7.358;2023-03-08T15:13:22;5.50;22.50
5286;DHT22;2665;53.112;7.358;2023-03-08T15:15:48;5.50;22.90
5286;DHT22;2665;53.112;7.358;2023-03-08T15:18:14;5.50;24.00
5286;DHT22;2665;53.112;7.358;2023-03-08T15:20:46;5.50;23.00
5286;DHT22;2665;53.112;7.358;2023-03-08T15:23:25;5.50;23.50
5286;DHT22;2665;53.112;7.358;2023-03-08T15:25:52;5.60;23.50
5286;DHT22;2665;53.112;7.358;2023-03-08T15:28:20;5.50;24.10
5286;DHT22;2665;53.112;7.358;2023-03-08T15:30:46;5.50;23.60
5286;DHT22;2665;53.112;7.358;2023-03-08T15:33:12;5.50;24.70
5286;DHT22;2665;53.112;7.358;2023-03-08T15:35:38;5.50;24.40
5286;DHT22;2665;53.112;7.358;2023-03-08T15:38:04;5.50;25.70
5286;DHT22;2665;53.112;7.358;2023-03-08T15:40:31;5.50;26.60
5286;DHT22;2665;53.112;7.358;2023-03-08T15:42:56;5.50;25.70
5286;DHT22;2665;53.112;7.358;2023-03-08T15:45:22;5.40;25.90
5286;DHT22;2665;53.112;7.358;2023-03-08T15:48:07;5.30;25.80
5286;DHT22;2665;53.112;7.358;2023-03-08T15:50:35;5.20;24.80
5286;DHT22;2665;53.112;7.358;2023-03-08T15:53:01;5.10;26.30
5286;DHT22;2665;53.112;7.358;2023-03-08T15:55:29;5.00;26.30
5286;DHT22;2665;53.112;7.358;2023-03-08T15:57:55;4.90;25.50
5286;DHT22;2665;53.112;7.358;2023-03-08T16:00:21;4.80;25.60
5286;DHT22;2665;53.112;7.358;2023-03-08T16:02:48;4.80;25.90
5286;DHT22;2665;53.112;7.358;2023-03-08T16:05:14;4.80;27.10
5286;DHT22;2665;53.112;7.358;2023-03-08T16:07:41;4.70;27.50
5286;DHT22;2665;53.112;7.358;2023-03-08T16:10:09;4.70;27.70
5286;DHT22;2665;53.112;7.358;2023-03-08T16:12:35;4.70;28.50
5286;DHT22;2665;53.112;7.358;2023-03-08T16:15:00;4.60;29.80
5286;DHT22;2665;53.112;7.358;2023-03-08T16:17:29;4.60;28.60
5286;DHT22;2665;53.112;7.358;2023-03-08T16:19:54;4.50;29.00
5286;DHT22;2665;53.112;7.358;2023-03-08T16:22:21;4.50;29.90
5286;DHT22;2665;53.112;7.358;2023-03-08T16:24:47;4.50;29.40
5286;DHT22;2665;53.112;7.358;2023-03-08T16:27:13;4.40;29.80
5286;DHT22;2665;53.112;7.358;2023-03-08T16:29:39;4.40;30.90
5286;DHT22;2665;53.112;7.358;2023-03-08T16:32:04;4.30;30.90
5286;DHT22;2665;53.112;7.358;2023-03-08T16:34:30;4.30;30.50
5286;DHT22;2665;53.112;7.358;2023-03-08T16:36:56;4.20;31.00
5286;DHT22;2665;53.112;7.358;2023-03-08T16:39:23;4.20;29.70
5286;DHT22;2665;53.112;7.358;2023-03-08T16:41:49;4.10;31.10
5286;DHT22;2665;53.112;7.358;2023-03-08T16:44:25;4.10;31.50
5286;DHT22;2665;53.112;7.358;2023-03-08T16:46:51;4.10;30.70
5286;DHT22;2665;53.112;7.358;2023-03-08T16:49:18;4.00;31.40
5286;DHT22;2665;53.112;7.358;2023-03-08T16:51:45;4.00;33.00
5286;DHT22;2665;53.112;7.358;2023-03-08T16:54:11;3.90;31.70
5286;DHT22;2665;53.112;7.358;2023-03-08T16:56:38;3.90;33.20
5286;DHT22;2665;53.112;7.358;2023-03-08T16:59:05;3.80;32.70
5286;DHT22;2665;53.112;7.358;2023-03-08T17:01:31;3.80;33.40
5286;DHT22;2665;53.112;7.358;2023-03-08T17:03:57;3.70;34.10
5286;DHT22;2665;53.112;7.358;2023-03-08T17:06:25;3.70;36.10
5286;DHT22;2665;53.112;7.358;2023-03-08T17:08:51;3.70;36.50
5286;DHT22;2665;53.112;7.358;2023-03-08T17:11:19;3.60;37.90
5286;DHT22;2665;53.112;7.358;2023-03-08T17:13:50;3.60;39.00
5286;DHT22;2665;53.112;7.358;2023-03-08T17:16:21;3.50;38.40
5286;DHT22;2665;53.112;7.358;2023-03-08T17:18:48;3.50;39.80
5286;DHT22;2665;53.112;7.358;2023-03-08T17:21:15;3.40;40.90
5286;DHT22;2665;53.112;7.358;2023-03-08T17:23:40;3.30;46.30
5286;DHT22;2665;53.112;7.358;2023-03-08T17:26:08;3.30;43.50
5286;DHT22;2665;53.112;7.358;2023-03-08T17:28:34;3.30;45.20
5286;DHT22;2665;53.112;7.358;2023-03-08T17:31:00;3.20;47.50
5286;DHT22;2665;53.112;7.358;2023-03-08T17:33:26;3.10;49.50
5286;DHT22;2665;53.112;7.358;2023-03-08T17:35:56;3.10;51.50
5286;DHT22;2665;53.112;7.358;2023-03-08T17:38:23;3.10;53.40
5286;DHT22;2665;53.112;7.358;2023-03-08T17:40:49;3.10;54.30
5286;DHT22;2665;53.112;7.358;2023-03-08T17:43:15;3.00;55.10
5286;DHT22;2665;53.112;7.358;2023-03-08T17:45:40;3.00;54.70
5286;DHT22;2665;53.112;7.358;2023-03-08T17:48:06;3.00;55.40
5286;DHT22;2665;53.112;7.358;2023-03-08T17:50:35;2.90;56.70
5286;DHT22;2665;53.112;7.358;2023-03-08T17:53:01;2.90;57.90
5286;DHT22;2665;53.112;7.358;2023-03-08T17:55:30;2.90;58.40
5286;DHT22;2665;53.112;7.358;2023-03-08T17:57:56;2.90;60.00
5286;DHT22;2665;53.112;7.358;2023-03-08T18:00:22;2.90;60.00
5286;DHT22;2665;53.112;7.358;2023-03-08T18:02:49;2.80;60.60
5286;DHT22;2665;53.112;7.358;2023-03-08T18:05:14;2.80;62.60
5286;DHT22;2665;53.112;7.358;2023-03-08T18:07:40;2.80;64.90
5286;DHT22;2665;53.112;7.358;2023-03-08T18:10:07;2.80;64.10
5286;DHT22;2665;53.112;7.358;2023-03-08T18:12:35;2.70;64.20
5286;DHT22;2665;53.112;7.358;2023-03-08T18:15:00;2.70;65.90
5286;DHT22;2665;53.112;7.358;2023-03-08T18:17:26;2.70;66.20
5286;DHT22;2665;53.112;7.358;2023-03-08T18:19:51;2.60;68.10
5286;DHT22;2665;53.112;7.358;2023-03-08T18:22:17;2.60;68.70
5286;DHT22;2665;53.112;7.358;2023-03-08T18:24:43;2.60;70.90
5286;DHT22;2665;53.112;7.358;2023-03-08T18:27:08;2.60;71.80
5286;DHT22;2665;53.112;7.358;2023-03-08T18:29:35;2.60;73.30
5286;DHT22;2665;53.112;7.358;2023-03-08T18:32:01;2.60;74.30
5286;DHT22;2665;53.112;7.358;2023-03-08T18:34:27;2.60;76.20
5286;DHT22;2665;53.112;7.358;2023-03-08T18:36:55;2.50;77.20
5286;DHT22;2665;53.112;7.358;2023-03-08T18:39:24;2.50;77.60
5286;DHT22;2665;53.112;7.358;2023-03-08T18:41:50;2.60;77.40
5286;DHT22;2665;53.112;7.358;2023-03-08T18:44:18;2.60;78.50
5286;DHT22;2665;53.112;7.358;2023-03-08T18:46:43;2.50;80.10
5286;DHT22;2665;53.112;7.358;2023-03-08T18:49:11;2.50;79.90
5286;DHT22;2665;53.112;7.358;2023-03-08T18:51:38;2.50;80.00
5286;DHT22;2665;53.112;7.358;2023-03-08T18:54:05;2.40;80.90
